sensor_id;sensor_type;location;lat;lon;timestamp;P1;durP1;ratioP1;P2;durP2;ratioP2
19891;SDS011;10108;50.142;8.724;2023-02-20T00:00:53;14.70;;;7.32;;
19891;SDS011;10108;50.142;8.724;2023-02-20T00:03:19;13.32;;;7.78;;
19891;SDS011;10108;50.142;8.724;2023-02-20T00:05:46;10.60;;;7.22;;
19891;SDS011;10108;50.142;8.724;2023-02-20T00:08:12;11.57;;;7.20;;
19891;SDS011;10108;50.142;8.724;2023-02-20T00:10:38;12.20;;;7.10;;
19891;SDS011;10108;50.142;8.724;2023-02-20T00:13:04;10.95;;;7.10;;
19891;SDS011;10108;50.142;8.724;2023-02-20T00:15:30;11.27;;;7.30;;
19891;SDS011;10108;50.142;8.724;2023-02-20T00:17:56;11.43;;;7.30;;
19891;SDS011;10108;50.142;8.724;2023-02-20T00:20:23;12.02;;;7.80;;
19891;SDS011;10108;50.142;8.724;2023-02-20T00:22:50;11.00;;;7.65;;
19891;SDS011;10108;50.142;8.724;2023-02-20T00:25:18;12.07;;;7.95;;
19891;SDS011;10108;50.142;8.724;2023-02-20T00:27:45;12.60;;;7.30;;
19891;SDS011;10108;50.142;8.724;2023-02-20T00:30:16;14.00;;;7.95;;
19891;SDS011;10108;50.142;8.724;2023-02-20T00:32:46;11.55;;;7.80;;
19891;SDS011;10108;50.142;8.724;2023-02-20T00:35:13;13.65;;;7.60;;
19891;SDS011;10108;50.142;8.724;2023-02-20T00:37:40;13.13;;;8.23;;
19891;SDS011;10108;50.142;8.724;2023-02-20T00:40:06;11.95;;;8.05;;
19891;SDS011;10108;50.142;8.724;2023-02-20T00:42:34;13.50;;;8.35;;
19891;SDS011;10108;50.142;8.724;2023-02-20T00:45:00;15.05;;;7.65;;
19891;SDS011;10108;50.142;8.724;2023-02-20T00:47:27;14.35;;;8.43;;
19891;SDS011;10108;50.142;8.724;2023-02-20T00:49:53;13.57;;;8.73;;
19891;SDS011;10108;50.142;8.724;2023-02-20T00:52:21;14.40;;;8.63;;
19891;SDS011;10108;50.142;8.724;2023-02-20T00:54:48;12.70;;;7.90;;
19891;SDS011;10108;50.142;8.724;2023-02-20T00:57:14;12.35;;;8.07;;
19891;SDS011;10108;50.142;8.724;2023-02-20T00:59:41;14.60;;;8.50;;
19891;SDS011;10108;50.142;8.724;2023-02-20T01:02:07;12.65;;;8.50;;
19891;SDS011;10108;50.142;8.724;2023-02-20T01:04:34;14.25;;;8.55;;
19891;SDS011;10108;50.142;8.724;2023-02-20T01:07:01;13.15;;;8.30;;
19891;SDS011;10108;50.142;8.724;2023-02-20T01:09:27;13.77;;;8.50;;
19891;SDS011;10108;50.142;8.724;2023-02-20T01:11:54;13.98;;;8.18;;
19891;SDS011;10108;50.142;8.724;2023-02-20T01:14:21;13.50;;;8.68;;
19891;SDS011;10108;50.142;8.724;2023-02-20T01:16:48;13.13;;;8.80;;
19891;SDS011;10108;50.142;8.724;2023-02-20T01:19:16;12.95;;;7.90;;
19891;SDS011;10108;50.142;8.724;2023-02-20T01:21:43;13.38;;;8.50;;
19891;SDS011;10108;50.142;8.724;2023-02-20T01:24:11;12.93;;;8.32;;
19891;SDS011;10108;50.142;8.724;2023-02-20T01:26:39;12.43;;;8.02;;
19891;SDS011;10108;50.142;8.724;2023-02-20T01:29:06;14.70;;;8.60;;
19891;SDS011;10108;50.142;8.724;2023-02-20T01:31:33;14.10;;;8.70;;
19891;SDS011;10108;50.142;8.724;2023-02-20T01:33:59;11.95;;;8.20;;
19891;SDS011;10108;50.142;8.724;2023-02-20T01:36:25;13.82;;;8.07;;
19891;SDS011;10108;50.142;8.724;2023-02-20T01:38:52;12.80;;;8.02;;
19891;SDS011;10108;50.142;8.724;2023-02-20T01:41:20;14.32;;;7.97;;
19891;SDS011;10108;50.142;8.724;2023-02-20T01:43:47;11.40;;;7.72;;
19891;SDS011;10108;50.142;8.724;2023-02-20T01:49:01;12.73;;;7.80;;
19891;SDS011;10108;50.142;8.724;2023-02-20T01:51:30;13.98;;;7.78;;
19891;SDS011;10108;50.142;8.724;2023-02-20T01:53:58;12.63;;;7.80;;
19891;SDS011;10108;50.142;8.724;2023-02-20T01:56:24;14.75;;;7.30;;
19891;SDS011;10108;50.142;8.724;2023-02-20T01:58:52;12.52;;;8.13;;
19891;SDS011;10108;50.142;8.724;2023-02-20T02:01:19;11.77;;;7.57;;
19891;SDS011;10108;50.142;8.724;2023-02-20T02:03:46;12.02;;;7.75;;
19891;SDS011;10108;50.142;8.724;2023-02-20T02:06:14;12.32;;;7.20;;
19891;SDS011;10108;50.142;8.724;2023-02-20T02:08:41;11.98;;;7.38;;
19891;SDS011;10108;50.142;8.724;2023-02-20T02:11:11;12.18;;;7.45;;
19891;SDS011;10108;50.142;8.724;2023-02-20T02:13:39;12.15;;;7.68;;
19891;SDS011;10108;50.142;8.724;2023-02-20T02:16:14;12.40;;;7.97;;
19891;SDS011;10108;50.142;8.724;2023-02-20T02:21:27;13.35;;;8.25;;
19891;SDS011;10108;50.142;8.724;2023-02-20T02:30:28;13.70;;;8.10;;
19891;SDS011;10108;50.142;8.724;2023-02-20T02:32:42;11.60;;;7.78;;
19891;SDS011;10108;50.142;8.724;2023-02-20T02:38:30;14.07;;;8.15;;
19891;SDS011;10108;50.142;8.724;2023-02-20T02:41:21;14.70;;;8.23;;
19891;SDS011;10108;50.142;8.724;2023-02-20T02:44:21;14.13;;;8.40;;
19891;SDS011;10108;50.142;8.724;2023-02-20T02:49:56;12.15;;;7.95;;
19891;SDS011;10108;50.142;8.724;2023-02-20T02:52:26;13.48;;;8.18;;
19891;SDS011;10108;50.142;8.724;2023-02-20T02:55:11;16.92;;;8.23;;
19891;SDS011;10108;50.142;8.724;2023-02-20T02:57:38;13.68;;;7.93;;
19891;SDS011;10108;50.142;8.724;2023-02-20T03:00:06;12.02;;;7.82;;
19891;SDS011;10108;50.142;8.724;2023-02-20T03:02:45;13.07;;;8.00;;
19891;SDS011;10108;50.142;8.724;2023-02-20T03:05:20;12.40;;;7.90;;
19891;SDS011;10108;50.142;8.724;2023-02-20T03:07:51;15.02;;;8.77;;
19891;SDS011;10108;50.142;8.724;2023-02-20T03:10:21;12.45;;;8.48;;
19891;SDS011;10108;50.142;8.724;2023-02-20T03:12:57;14.65;;;8.35;;
19891;SDS011;10108;50.142;8.724;2023-02-20T03:15:32;12.60;;;8.25;;
19891;SDS011;10108;50.142;8.724;2023-02-20T03:20:58;14.15;;;8.43;;
19891;SDS011;10108;50.142;8.724;2023-02-20T03:23:31;15.07;;;8.70;;
19891;SDS011;10108;50.142;8.724;2023-02-20T03:26:02;15.77;;;9.07;;
19891;SDS011;10108;50.142;8.724;2023-02-20T03:28:37;14.40;;;8.68;;
19891;SDS011;10108;50.142;8.724;2023-02-20T03:31:10;16.52;;;8.70;;
19891;SDS011;10108;50.142;8.724;2023-02-20T03:33:44;17.63;;;8.93;;
19891;SDS011;10108;50.142;8.724;2023-02-20T03:36:41;16.98;;;9.07;;
19891;SDS011;10108;50.142;8.724;2023-02-20T03:39:42;14.73;;;9.40;;
19891;SDS011;10108;50.142;8.724;2023-02-20T03:42:32;15.23;;;9.18;;
19891;SDS011;10108;50.142;8.724;2023-02-20T03:45:26;16.48;;;8.95;;
19891;SDS011;10108;50.142;8.724;2023-02-20T03:47:55;15.05;;;8.77;;
19891;SDS011;10108;50.142;8.724;2023-02-20T03:50:22;15.38;;;8.60;;
19891;SDS011;10108;50.142;8.724;2023-02-20T03:53:07;15.52;;;9.02;;
19891;SDS011;10108;50.142;8.724;2023-02-20T03:55:35;14.63;;;8.95;;
19891;SDS011;10108;50.142;8.724;2023-02-20T03:58:05;15.45;;;8.48;;
19891;SDS011;10108;50.142;8.724;2023-02-20T04:00:34;14.23;;;9.43;;
19891;SDS011;10108;50.142;8.724;2023-02-20T04:03:05;15.95;;;9.60;;
19891;SDS011;10108;50.142;8.724;2023-02-20T04:05:37;16.98;;;9.77;;
19891;SDS011;10108;50.142;8.724;2023-02-20T04:08:08;14.48;;;9.38;;
19891;SDS011;10108;50.142;8.724;2023-02-20T04:10:41;13.35;;;8.90;;
19891;SDS011;10108;50.142;8.724;2023-02-20T04:13:09;16.10;;;9.50;;
19891;SDS011;10108;50.142;8.724;2023-02-20T04:15:37;17.25;;;8.70;;
19891;SDS011;10108;50.142;8.724;2023-02-20T04:18:06;13.73;;;8.60;;
19891;SDS011;10108;50.142;8.724;2023-02-20T04:20:33;13.85;;;8.93;;
19891;SDS011;10108;50.142;8.724;2023-02-20T04:23:16;15.23;;;8.57;;
19891;SDS011;10108;50.142;8.724;2023-02-20T04:25:44;13.57;;;8.43;;
19891;SDS011;10108;50.142;8.724;2023-02-20T04:28:12;16.23;;;8.80;;
19891;SDS011;10108;50.142;8.724;2023-02-20T04:30:54;13.07;;;8.30;;
19891;SDS011;10108;50.142;8.724;2023-02-20T04:33:20;12.80;;;8.57;;
19891;SDS011;10108;50.142;8.724;2023-02-20T04:35:49;14.10;;;8.50;;
19891;SDS011;10108;50.142;8.724;2023-02-20T04:38:16;17.95;;;8.63;;
19891;SDS011;10108;50.142;8.724;2023-02-20T04:40:43;15.57;;;8.60;;
19891;SDS011;10108;50.142;8.724;2023-02-20T04:43:10;14.07;;;8.88;;
19891;SDS011;10108;50.142;8.724;2023-02-20T04:45:36;13.68;;;9.13;;
19891;SDS011;10108;50.142;8.724;2023-02-20T04:48:03;16.23;;;8.90;;
19891;SDS011;10108;50.142;8.724;2023-02-20T04:50:31;13.90;;;8.55;;
19891;SDS011;10108;50.142;8.724;2023-02-20T04:52:58;14.48;;;8.45;;
19891;SDS011;10108;50.142;8.724;2023-02-20T04:55:25;17.08;;;8.90;;
19891;SDS011;10108;50.142;8.724;2023-02-20T04:57:54;13.13;;;8.73;;
19891;SDS011;10108;50.142;8.724;2023-02-20T05:00:24;15.73;;;9.25;;
19891;SDS011;10108;50.142;8.724;2023-02-20T05:02:51;16.23;;;9.00;;
19891;SDS011;10108;50.142;8.724;2023-02-20T05:07:44;12.68;;;8.77;;
19891;SDS011;10108;50.142;8.724;2023-02-20T05:10:15;13.65;;;8.93;;
19891;SDS011;10108;50.142;8.724;2023-02-20T05:12:41;13.50;;;8.80;;
19891;SDS011;10108;50.142;8.724;2023-02-20T05:15:08;18.10;;;8.77;;
19891;SDS011;10108;50.142;8.724;2023-02-20T05:17:35;13.45;;;8.50;;
19891;SDS011;10108;50.142;8.724;2023-02-20T05:20:02;14.73;;;8.57;;
19891;SDS011;10108;50.142;8.724;2023-02-20T05:22:28;14.52;;;8.38;;
19891;SDS011;10108;50.142;8.724;2023-02-20T05:24:54;15.25;;;9.35;;
19891;SDS011;10108;50.142;8.724;2023-02-20T05:27:21;18.23;;;8.88;;
19891;SDS011;10108;50.142;8.724;2023-02-20T05:29:49;12.65;;;8.55;;
19891;SDS011;10108;50.142;8.724;2023-02-20T05:32:16;13.80;;;8.68;;
19891;SDS011;10108;50.142;8.724;2023-02-20T05:34:43;13.13;;;8.80;;
19891;SDS011;10108;50.142;8.724;2023-02-20T05:37:11;11.70;;;8.80;;
19891;SDS011;10108;50.142;8.724;2023-02-20T05:39:37;13.77;;;8.48;;
19891;SDS011;10108;50.142;8.724;2023-02-20T05:42:04;15.77;;;8.40;;
19891;SDS011;10108;50.142;8.724;2023-02-20T05:44:31;14.68;;;8.18;;
19891;SDS011;10108;50.142;8.724;2023-02-20T05:46:58;14.57;;;8.48;;
19891;SDS011;10108;50.142;8.724;2023-02-20T05:49:24;15.18;;;8.38;;
19891;SDS011;10108;50.142;8.724;2023-02-20T05:51:50;13.93;;;8.30;;
19891;SDS011;10108;50.142;8.724;2023-02-20T05:54:18;18.10;;;8.88;;
19891;SDS011;10108;50.142;8.724;2023-02-20T05:56:45;16.77;;;8.93;;
19891;SDS011;10108;50.142;8.724;2023-02-20T05:59:12;24.00;;;9.07;;
19891;SDS011;10108;50.142;8.724;2023-02-20T06:01:39;16.88;;;9.02;;
19891;SDS011;10108;50.142;8.724;2023-02-20T06:04:06;17.42;;;9.23;;
19891;SDS011;10108;50.142;8.724;2023-02-20T06:06:33;14.82;;;9.15;;
19891;SDS011;10108;50.142;8.724;2023-02-20T06:09:00;13.50;;;8.90;;
19891;SDS011;10108;50.142;8.724;2023-02-20T06:11:26;15.10;;;9.27;;
19891;SDS011;10108;50.142;8.724;2023-02-20T06:13:53;13.98;;;9.15;;
19891;SDS011;10108;50.142;8.724;2023-02-20T06:16:23;15.57;;;9.40;;
19891;SDS011;10108;50.142;8.724;2023-02-20T06:18:50;19.48;;;9.55;;
19891;SDS011;10108;50.142;8.724;2023-02-20T06:21:16;13.38;;;9.00;;
19891;SDS011;10108;50.142;8.724;2023-02-20T06:23:43;15.57;;;9.15;;
19891;SDS011;10108;50.142;8.724;2023-02-20T06:26:10;13.90;;;8.88;;
19891;SDS011;10108;50.142;8.724;2023-02-20T06:28:38;15.88;;;9.63;;
19891;SDS011;10108;50.142;8.724;2023-02-20T06:31:05;17.35;;;9.75;;
19891;SDS011;10108;50.142;8.724;2023-02-20T06:33:31;17.00;;;9.57;;
19891;SDS011;10108;50.142;8.724;2023-02-20T06:35:58;15.93;;;9.48;;
19891;SDS011;10108;50.142;8.724;2023-02-20T06:38:24;21.15;;;9.65;;
19891;SDS011;10108;50.142;8.724;2023-02-20T06:40:51;14.98;;;9.98;;
19891;SDS011;10108;50.142;8.724;2023-02-20T06:43:18;15.27;;;9.63;;
19891;SDS011;10108;50.142;8.724;2023-02-20T06:45:45;15.88;;;9.82;;
19891;SDS011;10108;50.142;8.724;2023-02-20T06:48:11;22.58;;;10.80;;
19891;SDS011;10108;50.142;8.724;2023-02-20T06:50:39;18.90;;;10.48;;
19891;SDS011;10108;50.142;8.724;2023-02-20T06:53:06;14.68;;;9.75;;
19891;SDS011;10108;50.142;8.724;2023-02-20T06:55:32;16.83;;;10.20;;
19891;SDS011;10108;50.142;8.724;2023-02-20T06:57:59;17.08;;;10.40;;
19891;SDS011;10108;50.142;8.724;2023-02-20T07:00:26;19.70;;;9.98;;
19891;SDS011;10108;50.142;8.724;2023-02-20T07:02:52;14.00;;;10.20;;
19891;SDS011;10108;50.142;8.724;2023-02-20T07:05:18;20.70;;;10.45;;
19891;SDS011;10108;50.142;8.724;2023-02-20T07:07:44;17.67;;;10.57;;
19891;SDS011;10108;50.142;8.724;2023-02-20T07:10:11;18.45;;;10.07;;
19891;SDS011;10108;50.142;8.724;2023-02-20T07:12:37;16.73;;;10.15;;
19891;SDS011;10108;50.142;8.724;2023-02-20T07:15:05;20.15;;;9.80;;
19891;SDS011;10108;50.142;8.724;2023-02-20T07:17:32;16.15;;;10.13;;
19891;SDS011;10108;50.142;8.724;2023-02-20T07:19:58;16.30;;;9.55;;
19891;SDS011;10108;50.142;8.724;2023-02-20T07:22:25;17.60;;;9.98;;
19891;SDS011;10108;50.142;8.724;2023-02-20T07:24:51;17.67;;;9.98;;
19891;SDS011;10108;50.142;8.724;2023-02-20T07:27:17;18.77;;;10.20;;
19891;SDS011;10108;50.142;8.724;2023-02-20T07:29:47;17.42;;;10.18;;
19891;SDS011;10108;50.142;8.724;2023-02-20T07:32:14;17.60;;;10.00;;
19891;SDS011;10108;50.142;8.724;2023-02-20T07:34:47;17.20;;;9.70;;
19891;SDS011;10108;50.142;8.724;2023-02-20T07:37:14;16.10;;;10.43;;
19891;SDS011;10108;50.142;8.724;2023-02-20T07:39:41;15.27;;;9.75;;
19891;SDS011;10108;50.142;8.724;2023-02-20T07:42:07;19.88;;;9.95;;
19891;SDS011;10108;50.142;8.724;2023-02-20T07:44:53;17.92;;;9.50;;
19891;SDS011;10108;50.142;8.724;2023-02-20T07:47:19;18.23;;;9.40;;
19891;SDS011;10108;50.142;8.724;2023-02-20T07:49:46;18.67;;;10.23;;
19891;SDS011;10108;50.142;8.724;2023-02-20T07:52:12;17.50;;;10.65;;
19891;SDS011;10108;50.142;8.724;2023-02-20T07:54:38;16.40;;;9.68;;
19891;SDS011;10108;50.142;8.724;2023-02-20T07:57:04;18.35;;;9.57;;
19891;SDS011;10108;50.142;8.724;2023-02-20T07:59:30;15.27;;;9.63;;
19891;SDS011;10108;50.142;8.724;2023-02-20T08:01:56;17.27;;;9.88;;
19891;SDS011;10108;50.142;8.724;2023-02-20T08:04:22;20.55;;;10.30;;
19891;SDS011;10108;50.142;8.724;2023-02-20T08:06:49;16.73;;;10.00;;
19891;SDS011;10108;50.142;8.724;2023-02-20T08:09:15;16.40;;;9.65;;
19891;SDS011;10108;50.142;8.724;2023-02-20T08:11:41;16.30;;;9.98;;
19891;SDS011;10108;50.142;8.724;2023-02-20T08:14:07;20.27;;;9.77;;
19891;SDS011;10108;50.142;8.724;2023-02-20T08:16:33;19.83;;;9.55;;
19891;SDS011;10108;50.142;8.724;2023-02-20T08:18:59;18.88;;;9.40;;
19891;SDS011;10108;50.142;8.724;2023-02-20T08:21:26;17.25;;;9.85;;
19891;SDS011;10108;50.142;8.724;2023-02-20T08:23:52;16.63;;;9.52;;
19891;SDS011;10108;50.142;8.724;2023-02-20T08:26:19;19.30;;;9.20;;
19891;SDS011;10108;50.142;8.724;2023-02-20T08:28:46;19.02;;;9.68;;
19891;SDS011;10108;50.142;8.724;2023-02-20T08:31:13;16.42;;;9.85;;
19891;SDS011;10108;50.142;8.724;2023-02-20T08:33:40;15.43;;;9.15;;
19891;SDS011;10108;50.142;8.724;2023-02-20T08:36:06;21.25;;;9.38;;
19891;SDS011;10108;50.142;8.724;2023-02-20T08:38:33;17.63;;;9.63;;
19891;SDS011;10108;50.142;8.724;2023-02-20T08:41:05;15.60;;;8.77;;
19891;SDS011;10108;50.142;8.724;2023-02-20T08:43:35;15.18;;;9.32;;
19891;SDS011;10108;50.142;8.724;2023-02-20T08:46:03;18.70;;;9.43;;
19891;SDS011;10108;50.142;8.724;2023-02-20T08:48:30;16.25;;;9.75;;
19891;SDS011;10108;50.142;8.724;2023-02-20T08:50:57;20.30;;;10.07;;
19891;SDS011;10108;50.142;8.724;2023-02-20T08:53:23;17.92;;;9.82;;
19891;SDS011;10108;50.142;8.724;2023-02-20T08:55:49;17.73;;;10.00;;
19891;SDS011;10108;50.142;8.724;2023-02-20T08:58:19;22.02;;;10.50;;
19891;SDS011;10108;50.142;8.724;2023-02-20T09:00:47;20.50;;;10.50;;
19891;SDS011;10108;50.142;8.724;2023-02-20T09:03:16;17.88;;;10.23;;
19891;SDS011;10108;50.142;8.724;2023-02-20T09:05:43;20.77;;;10.27;;
19891;SDS011;10108;50.142;8.724;2023-02-20T09:08:09;25.35;;;10.93;;
19891;SDS011;10108;50.142;8.724;2023-02-20T09:10:36;18.42;;;10.60;;
19891;SDS011;10108;50.142;8.724;2023-02-20T09:13:02;20.77;;;11.43;;
19891;SDS011;10108;50.142;8.724;2023-02-20T09:15:28;20.75;;;11.48;;
19891;SDS011;10108;50.142;8.724;2023-02-20T09:17:56;20.88;;;11.43;;
19891;SDS011;10108;50.142;8.724;2023-02-20T09:20:22;20.50;;;10.90;;
19891;SDS011;10108;50.142;8.724;2023-02-20T09:22:49;23.45;;;11.88;;
19891;SDS011;10108;50.142;8.724;2023-02-20T09:25:16;22.08;;;12.27;;
19891;SDS011;10108;50.142;8.724;2023-02-20T09:27:43;20.08;;;12.00;;
19891;SDS011;10108;50.142;8.724;2023-02-20T09:30:09;21.92;;;11.52;;
19891;SDS011;10108;50.142;8.724;2023-02-20T09:32:41;20.27;;;12.10;;
19891;SDS011;10108;50.142;8.724;2023-02-20T09:35:08;22.33;;;11.77;;
19891;SDS011;10108;50.142;8.724;2023-02-20T09:37:38;20.60;;;12.00;;
19891;SDS011;10108;50.142;8.724;2023-02-20T09:40:04;20.05;;;11.63;;
19891;SDS011;10108;50.142;8.724;2023-02-20T09:50:21;19.70;;;11.30;;
19891;SDS011;10108;50.142;8.724;2023-02-20T09:53:13;18.77;;;10.95;;
19891;SDS011;10108;50.142;8.724;2023-02-20T09:55:49;23.65;;;11.45;;
19891;SDS011;10108;50.142;8.724;2023-02-20T09:58:40;20.75;;;11.07;;
19891;SDS011;10108;50.142;8.724;2023-02-20T10:01:12;19.33;;;10.82;;
19891;SDS011;10108;50.142;8.724;2023-02-20T10:06:20;22.83;;;11.57;;
19891;SDS011;10108;50.142;8.724;2023-02-20T10:08:48;20.08;;;11.77;;
19891;SDS011;10108;50.142;8.724;2023-02-20T10:11:25;22.65;;;10.90;;
19891;SDS011;10108;50.142;8.724;2023-02-20T10:19:59;24.45;;;11.40;;
19891;SDS011;10108;50.142;8.724;2023-02-20T10:25:38;19.75;;;11.35;;
19891;SDS011;10108;50.142;8.724;2023-02-20T10:28:19;21.45;;;11.68;;
19891;SDS011;10108;50.142;8.724;2023-02-20T10:33:40;24.27;;;12.85;;
19891;SDS011;10108;50.142;8.724;2023-02-20T10:36:18;22.17;;;11.88;;
19891;SDS011;10108;50.142;8.724;2023-02-20T10:38:52;24.95;;;11.90;;
19891;SDS011;10108;50.142;8.724;2023-02-20T10:41:30;23.13;;;12.23;;
19891;SDS011;10108;50.142;8.724;2023-02-20T10:44:14;21.92;;;12.23;;
19891;SDS011;10108;50.142;8.724;2023-02-20T10:49:42;22.05;;;12.05;;
19891;SDS011;10108;50.142;8.724;2023-02-20T10:52:17;22.77;;;12.18;;
19891;SDS011;10108;50.142;8.724;2023-02-20T10:55:02;22.35;;;11.70;;
19891;SDS011;10108;50.142;8.724;2023-02-20T10:57:58;23.38;;;12.70;;
19891;SDS011;10108;50.142;8.724;2023-02-20T11:00:54;20.45;;;11.27;;
19891;SDS011;10108;50.142;8.724;2023-02-20T11:03:24;19.35;;;10.43;;
19891;SDS011;10108;50.142;8.724;2023-02-20T11:05:57;22.15;;;11.57;;
19891;SDS011;10108;50.142;8.724;2023-02-20T11:08:27;19.65;;;11.05;;
19891;SDS011;10108;50.142;8.724;2023-02-20T11:10:58;22.45;;;10.98;;
19891;SDS011;10108;50.142;8.724;2023-02-20T11:13:30;19.75;;;11.90;;
19891;SDS011;10108;50.142;8.724;2023-02-20T11:15:56;20.75;;;11.90;;
19891;SDS011;10108;50.142;8.724;2023-02-20T11:18:24;21.67;;;11.40;;
19891;SDS011;10108;50.142;8.724;2023-02-20T11:20:54;19.50;;;11.07;;
19891;SDS011;10108;50.142;8.724;2023-02-20T11:28:57;20.65;;;11.30;;
19891;SDS011;10108;50.142;8.724;2023-02-20T11:31:31;21.58;;;11.82;;
19891;SDS011;10108;50.142;8.724;2023-02-20T11:33:59;22.33;;;11.32;;
19891;SDS011;10108;50.142;8.724;2023-02-20T11:36:34;23.23;;;11.63;;
19891;SDS011;10108;50.142;8.724;2023-02-20T11:39:12;23.27;;;11.45;;
19891;SDS011;10108;50.142;8.724;2023-02-20T11:41:47;17.75;;;10.52;;
19891;SDS011;10108;50.142;8.724;2023-02-20T11:44:18;19.33;;;11.13;;
19891;SDS011;10108;50.142;8.724;2023-02-20T11:46:47;22.30;;;12.43;;
19891;SDS011;10108;50.142;8.724;2023-02-20T11:49:32;15.80;;;9.73;;
19891;SDS011;10108;50.142;8.724;2023-02-20T11:54:44;17.73;;;10.23;;
19891;SDS011;10108;50.142;8.724;2023-02-20T11:59:41;15.93;;;9.52;;
19891;SDS011;10108;50.142;8.724;2023-02-20T12:05:24;15.80;;;8.88;;
19891;SDS011;10108;50.142;8.724;2023-02-20T12:10:34;14.73;;;8.35;;
19891;SDS011;10108;50.142;8.724;2023-02-20T12:13:04;15.18;;;7.82;;
19891;SDS011;10108;50.142;8.724;2023-02-20T12:15:32;14.43;;;8.30;;
19891;SDS011;10108;50.142;8.724;2023-02-20T12:20:47;13.55;;;8.48;;
19891;SDS011;10108;50.142;8.724;2023-02-20T12:23:38;17.10;;;8.68;;
19891;SDS011;10108;50.142;8.724;2023-02-20T12:26:28;14.40;;;8.65;;
19891;SDS011;10108;50.142;8.724;2023-02-20T12:37:17;14.82;;;8.20;;
19891;SDS011;10108;50.142;8.724;2023-02-20T12:43:14;16.55;;;8.82;;
19891;SDS011;10108;50.142;8.724;2023-02-20T12:48:25;16.27;;;8.55;;
19891;SDS011;10108;50.142;8.724;2023-02-20T12:57:01;13.10;;;7.90;;
19891;SDS011;10108;50.142;8.724;2023-02-20T12:59:49;11.27;;;7.57;;
19891;SDS011;10108;50.142;8.724;2023-02-20T13:02:21;13.50;;;7.97;;
19891;SDS011;10108;50.142;8.724;2023-02-20T13:05:05;15.18;;;8.32;;
19891;SDS011;10108;50.142;8.724;2023-02-20T13:07:38;12.13;;;7.15;;
19891;SDS011;10108;50.142;8.724;2023-02-20T13:10:14;12.70;;;7.82;;
19891;SDS011;10108;50.142;8.724;2023-02-20T13:12:44;11.65;;;7.85;;
19891;SDS011;10108;50.142;8.724;2023-02-20T13:20:23;16.58;;;8.05;;
19891;SDS011;10108;50.142;8.724;2023-02-20T13:23:25;13.70;;;7.10;;
19891;SDS011;10108;50.142;8.724;2023-02-20T13:25:47;13.68;;;7.18;;
19891;SDS011;10108;50.142;8.724;2023-02-20T13:31:05;13.88;;;7.50;;
19891;SDS011;10108;50.142;8.724;2023-02-20T13:33:37;13.48;;;7.13;;
19891;SDS011;10108;50.142;8.724;2023-02-20T13:36:06;12.73;;;7.50;;
19891;SDS011;10108;50.142;8.724;2023-02-20T13:57:44;13.55;;;6.90;;
19891;SDS011;10108;50.142;8.724;2023-02-20T14:02:45;10.40;;;7.07;;
19891;SDS011;10108;50.142;8.724;2023-02-20T14:05:25;11.02;;;6.75;;
19891;SDS011;10108;50.142;8.724;2023-02-20T14:07:57;11.90;;;6.93;;
19891;SDS011;10108;50.142;8.724;2023-02-20T14:10:26;11.55;;;7.15;;
19891;SDS011;10108;50.142;8.724;2023-02-20T14:12:54;11.70;;;6.75;;
19891;SDS011;10108;50.142;8.724;2023-02-20T14:15:24;13.10;;;7.15;;
19891;SDS011;10108;50.142;8.724;2023-02-20T14:17:51;9.80;;;6.78;;
19891;SDS011;10108;50.142;8.724;2023-02-20T14:20:19;10.82;;;6.85;;
19891;SDS011;10108;50.142;8.724;2023-02-20T14:23:04;9.40;;;6.18;;
19891;SDS011;10108;50.142;8.724;2023-02-20T14:25:57;9.52;;;6.53;;
19891;SDS011;10108;50.142;8.724;2023-02-20T14:28:32;15.23;;;6.75;;
19891;SDS011;10108;50.142;8.724;2023-02-20T14:31:06;12.98;;;6.65;;
19891;SDS011;10108;50.142;8.724;2023-02-20T14:33:49;10.55;;;6.28;;
19891;SDS011;10108;50.142;8.724;2023-02-20T14:36:41;11.10;;;6.75;;
19891;SDS011;10108;50.142;8.724;2023-02-20T14:42:04;11.65;;;6.50;;
19891;SDS011;10108;50.142;8.724;2023-02-20T14:44:31;16.75;;;7.13;;
19891;SDS011;10108;50.142;8.724;2023-02-20T14:47:04;10.82;;;6.32;;
19891;SDS011;10108;50.142;8.724;2023-02-20T14:49:33;12.43;;;6.50;;
19891;SDS011;10108;50.142;8.724;2023-02-20T14:52:04;10.57;;;6.18;;
19891;SDS011;10108;50.142;8.724;2023-02-20T14:54:38;11.68;;;6.07;;
19891;SDS011;10108;50.142;8.724;2023-02-20T14:57:11;11.40;;;6.47;;
19891;SDS011;10108;50.142;8.724;2023-02-20T14:59:39;11.05;;;6.30;;
19891;SDS011;10108;50.142;8.724;2023-02-20T15:02:22;11.77;;;6.18;;
19891;SDS011;10108;50.142;8.724;2023-02-20T15:04:52;12.88;;;6.82;;
19891;SDS011;10108;50.142;8.724;2023-02-20T15:07:30;11.20;;;6.38;;
19891;SDS011;10108;50.142;8.724;2023-02-20T15:09:59;12.77;;;6.50;;
19891;SDS011;10108;50.142;8.724;2023-02-20T15:17:37;12.15;;;5.85;;
19891;SDS011;10108;50.142;8.724;2023-02-20T15:20:16;13.57;;;6.30;;
19891;SDS011;10108;50.142;8.724;2023-02-20T15:25:51;9.77;;;6.18;;
19891;SDS011;10108;50.142;8.724;2023-02-20T15:33:42;11.25;;;5.80;;
19891;SDS011;10108;50.142;8.724;2023-02-20T15:36:21;12.93;;;6.07;;
19891;SDS011;10108;50.142;8.724;2023-02-20T15:38:53;10.02;;;6.32;;
19891;SDS011;10108;50.142;8.724;2023-02-20T15:41:21;10.50;;;6.38;;
19891;SDS011;10108;50.142;8.724;2023-02-20T15:43:48;10.57;;;6.57;;
19891;SDS011;10108;50.142;8.724;2023-02-20T15:46:17;13.25;;;6.25;;
19891;SDS011;10108;50.142;8.724;2023-02-20T15:48:44;9.15;;;5.93;;
19891;SDS011;10108;50.142;8.724;2023-02-20T15:51:12;13.02;;;6.45;;
19891;SDS011;10108;50.142;8.724;2023-02-20T15:53:42;11.45;;;6.45;;
19891;SDS011;10108;50.142;8.724;2023-02-20T15:56:10;12.60;;;6.32;;
19891;SDS011;10108;50.142;8.724;2023-02-20T15:58:37;10.52;;;6.18;;
19891;SDS011;10108;50.142;8.724;2023-02-20T16:01:06;11.50;;;5.82;;
19891;SDS011;10108;50.142;8.724;2023-02-20T16:03:33;14.00;;;6.43;;
19891;SDS011;10108;50.142;8.724;2023-02-20T16:06:00;9.00;;;5.75;;
19891;SDS011;10108;50.142;8.724;2023-02-20T16:08:36;12.50;;;6.50;;
19891;SDS011;10108;50.142;8.724;2023-02-20T16:11:03;9.55;;;5.35;;
19891;SDS011;10108;50.142;8.724;2023-02-20T16:13:31;17.77;;;6.07;;
19891;SDS011;10108;50.142;8.724;2023-02-20T16:16:01;13.60;;;5.97;;
19891;SDS011;10108;50.142;8.724;2023-02-20T16:18:37;11.88;;;6.07;;
19891;SDS011;10108;50.142;8.724;2023-02-20T16:21:03;9.43;;;6.05;;
19891;SDS011;10108;50.142;8.724;2023-02-20T16:23:29;8.50;;;5.60;;
19891;SDS011;10108;50.142;8.724;2023-02-20T16:25:57;15.20;;;6.38;;
19891;SDS011;10108;50.142;8.724;2023-02-20T16:28:25;13.73;;;6.38;;
19891;SDS011;10108;50.142;8.724;2023-02-20T16:30:51;12.93;;;5.90;;
19891;SDS011;10108;50.142;8.724;2023-02-20T16:33:21;11.50;;;6.00;;
19891;SDS011;10108;50.142;8.724;2023-02-20T16:35:48;11.38;;;5.95;;
19891;SDS011;10108;50.142;8.724;2023-02-20T16:38:16;13.77;;;5.97;;
19891;SDS011;10108;50.142;8.724;2023-02-20T16:40:42;9.77;;;6.40;;
19891;SDS011;10108;50.142;8.724;2023-02-20T16:43:12;13.25;;;5.95;;
19891;SDS011;10108;50.142;8.724;2023-02-20T16:45:39;11.45;;;6.28;;
19891;SDS011;10108;50.142;8.724;2023-02-20T16:48:11;10.73;;;5.90;;
19891;SDS011;10108;50.142;8.724;2023-02-20T16:50:40;12.38;;;5.75;;
19891;SDS011;10108;50.142;8.724;2023-02-20T16:53:08;11.90;;;5.68;;
19891;SDS011;10108;50.142;8.724;2023-02-20T16:55:37;11.93;;;5.75;;
19891;SDS011;10108;50.142;8.724;2023-02-20T16:58:06;10.73;;;5.70;;
19891;SDS011;10108;50.142;8.724;2023-02-20T17:00:34;13.02;;;5.65;;
19891;SDS011;10108;50.142;8.724;2023-02-20T17:03:04;11.68;;;5.55;;